Tenstrike, MN (56683)

10:51 PM CDT on September 04, 2015 (GMT -0500)
Turtle River TWP | | Change Station
CLOSE
Current Station
Personal Weather Station
Location: Bemidji, MN
Elevation: 1379 ft
Nearby Weather Stations

Elev 1379 ft 47.54 °N, 94.72 °W | Updated 4 seconds ago

Thunderstorm
Thunderstorm
69.8 °F
Feels Like 69.8 °F
N
0.7
Wind Variable Wind from NW
Gusts 0.7 mph

Today
High -- | Low -- °F
--% Chance of Precip.
Yesterday
High -- | Low -- °F
Precip. -- in
6:40 AM 7:53 PM
Waning Gibbous, 53% visible
Pressure 29.90 in
Visibility 10.0 miles
Clouds Scattered Clouds 11000 ft
Dew Point 69 °F
Humidity 99%
Rainfall 0.56 in
Snow Depth Not available.
UV 0 out of 12
Pollen 10.60 out of 12
Air Quality Not available.
Flu Activity Not available.
METAR KBJI 050333Z AUTO 14005KT 10SM SCT110 21/20 A2990 RMK AO2 LTG DSNT NE THRU SE P0003 T02100200
Pressure 29.90 in
Visibility 10.0 miles
Clouds Scattered Clouds 11000 ft
Dew Point 69 °F
Humidity 99%
Rainfall 0.56 in
Snow Depth Not available.
UV 0 out of 12
Pollen 10.60 out of 12
Air Quality Not available.
Flu Activity Not available.
METAR KBJI 050333Z AUTO 14005KT 10SM SCT110 21/20 A2990 RMK AO2 LTG DSNT NE THRU SE P0003 T02100200

10-Day Weather Forecast

×

Almanac

Astronomy

Sep. 04, 2015 Rise Set
Actual Time
Civil Twilight
Nautical Twilight
Astronomical Twilight
Moon
Length of Visible Light
Length of Day
Tomorrow will be .
, % of the Moon is Illuminated

Today's Extremes

State Highs State Lows

Community

WunderPhotos

Upload Photos

1,852,408 photos uploaded!

WunderBlogs® & News

Nearby

Air Quality

  Air Quality AQ Index Pollutant
Not available.

Snow Depth

Station Depth Elevation

Earthquake Activity

City Distance Mag. Time & Date
Minimum magnitude displayed is 2.5.

Coastal Water Temperatures

Place Temperature

Stations

Nearby Weather Stations

Station Location Temp. Windchill Dew Point Humidity Wind Precip. Elev Updated Type